sensor_id;sensor_type;location;lat;lon;timestamp;temperature;humidity
26707;DHT22;14319;49.422;10.934;2023-11-21T00:01:09;9.30;94.10
26707;DHT22;14319;49.422;10.934;2023-11-21T00:03:10;9.30;94.10
26707;DHT22;14319;49.422;10.934;2023-11-21T00:05:13;9.30;95.40
26707;DHT22;14319;49.422;10.934;2023-11-21T00:07:16;9.30;94.30
26707;DHT22;14319;49.422;10.934;2023-11-21T00:09:17;9.30;94.10
26707;DHT22;14319;49.422;10.934;2023-11-21T00:11:19;9.20;94.00
26707;DHT22;14319;49.422;10.934;2023-11-21T00:13:20;9.20;94.50
26707;DHT22;14319;49.422;10.934;2023-11-21T00:15:21;9.30;94.60
26707;DHT22;14319;49.422;10.934;2023-11-21T00:17:22;9.30;94.20
26707;DHT22;14319;49.422;10.934;2023-11-21T00:19:22;9.30;93.90
26707;DHT22;14319;49.422;10.934;2023-11-21T00:21:23;9.30;93.60
26707;DHT22;14319;49.422;10.934;2023-11-21T00:23:23;9.30;93.90
26707;DHT22;14319;49.422;10.934;2023-11-21T00:25:24;9.30;93.70
26707;DHT22;14319;49.422;10.934;2023-11-21T00:27:25;9.30;93.90
26707;DHT22;14319;49.422;10.934;2023-11-21T00:29:26;9.30;93.90
26707;DHT22;14319;49.422;10.934;2023-11-21T00:31:26;9.30;93.30
26707;DHT22;14319;49.422;10.934;2023-11-21T00:33:27;9.20;94.10
26707;DHT22;14319;49.422;10.934;2023-11-21T00:35:28;9.30;94.40
26707;DHT22;14319;49.422;10.934;2023-11-21T00:37:28;9.30;94.30
26707;DHT22;14319;49.422;10.934;2023-11-21T00:39:29;9.30;94.10
26707;DHT22;14319;49.422;10.934;2023-11-21T00:41:30;9.30;94.60
26707;DHT22;14319;49.422;10.934;2023-11-21T00:43:32;9.30;94.80
26707;DHT22;14319;49.422;10.934;2023-11-21T00:45:35;9.30;94.80
26707;DHT22;14319;49.422;10.934;2023-11-21T00:47:36;9.20;94.50
26707;DHT22;14319;49.422;10.934;2023-11-21T00:49:39;9.20;94.50
26707;DHT22;14319;49.422;10.934;2023-11-21T00:51:39;9.20;94.90
26707;DHT22;14319;49.422;10.934;2023-11-21T00:53:40;9.20;95.60
26707;DHT22;14319;49.422;10.934;2023-11-21T00:55:40;9.20;95.20
26707;DHT22;14319;49.422;10.934;2023-11-21T00:57:41;9.20;95.20
26707;DHT22;14319;49.422;10.934;2023-11-21T00:59:42;9.30;94.90
26707;DHT22;14319;49.422;10.934;2023-11-21T01:01:43;9.20;94.60
26707;DHT22;14319;49.422;10.934;2023-11-21T01:03:47;9.30;95.10
26707;DHT22;14319;49.422;10.934;2023-11-21T01:05:48;9.20;95.10
26707;DHT22;14319;49.422;10.934;2023-11-21T01:07:50;9.30;94.40
26707;DHT22;14319;49.422;10.934;2023-11-21T01:09:51;9.30;93.90
26707;DHT22;14319;49.422;10.934;2023-11-21T01:11:52;9.20;94.60
26707;DHT22;14319;49.422;10.934;2023-11-21T01:13:53;9.30;95.50
26707;DHT22;14319;49.422;10.934;2023-11-21T01:15:54;9.30;94.70
26707;DHT22;14319;49.422;10.934;2023-11-21T01:17:55;9.20;94.30
26707;DHT22;14319;49.422;10.934;2023-11-21T01:19:55;9.20;94.20
26707;DHT22;14319;49.422;10.934;2023-11-21T01:21:56;9.10;93.60
26707;DHT22;14319;49.422;10.934;2023-11-21T01:23:58;9.20;94.50
26707;DHT22;14319;49.422;10.934;2023-11-21T01:25:58;9.20;94.30
26707;DHT22;14319;49.422;10.934;2023-11-21T01:27:59;9.20;94.80
26707;DHT22;14319;49.422;10.934;2023-11-21T01:30:01;9.20;94.50
26707;DHT22;14319;49.422;10.934;2023-11-21T01:32:02;9.30;94.50
26707;DHT22;14319;49.422;10.934;2023-11-21T01:34:04;9.30;94.70
26707;DHT22;14319;49.422;10.934;2023-11-21T01:36:05;9.30;94.40
26707;DHT22;14319;49.422;10.934;2023-11-21T01:38:06;9.30;94.30
26707;DHT22;14319;49.422;10.934;2023-11-21T01:40:08;9.30;94.40
26707;DHT22;14319;49.422;10.934;2023-11-21T01:42:13;9.30;94.20
26707;DHT22;14319;49.422;10.934;2023-11-21T01:44:14;9.30;94.70
26707;DHT22;14319;49.422;10.934;2023-11-21T01:46:14;9.30;94.80
26707;DHT22;14319;49.422;10.934;2023-11-21T01:48:16;9.30;94.30
26707;DHT22;14319;49.422;10.934;2023-11-21T01:50:17;9.40;94.50
26707;DHT22;14319;49.422;10.934;2023-11-21T01:52:18;9.30;94.00
26707;DHT22;14319;49.422;10.934;2023-11-21T01:54:20;9.40;94.50
26707;DHT22;14319;49.422;10.934;2023-11-21T01:56:21;9.40;94.50
26707;DHT22;14319;49.422;10.934;2023-11-21T01:58:22;9.30;94.50
26707;DHT22;14319;49.422;10.934;2023-11-21T02:00:23;9.30;94.50
26707;DHT22;14319;49.422;10.934;2023-11-21T02:02:24;9.30;94.30
26707;DHT22;14319;49.422;10.934;2023-11-21T02:04:25;9.20;94.60
26707;DHT22;14319;49.422;10.934;2023-11-21T02:06:25;9.30;95.00
26707;DHT22;14319;49.422;10.934;2023-11-21T02:08:27;9.30;94.40
26707;DHT22;14319;49.422;10.934;2023-11-21T02:10:27;9.30;94.60
26707;DHT22;14319;49.422;10.934;2023-11-21T02:12:29;9.30;94.60
26707;DHT22;14319;49.422;10.934;2023-11-21T02:14:30;9.30;95.10
26707;DHT22;14319;49.422;10.934;2023-11-21T02:16:32;9.30;94.60
26707;DHT22;14319;49.422;10.934;2023-11-21T02:18:34;9.40;94.20
26707;DHT22;14319;49.422;10.934;2023-11-21T02:20:35;9.40;94.30
26707;DHT22;14319;49.422;10.934;2023-11-21T02:22:39;9.40;94.00
26707;DHT22;14319;49.422;10.934;2023-11-21T02:24:41;9.40;93.90
26707;DHT22;14319;49.422;10.934;2023-11-21T02:26:42;9.30;93.70
26707;DHT22;14319;49.422;10.934;2023-11-21T02:28:43;9.30;92.80
26707;DHT22;14319;49.422;10.934;2023-11-21T02:30:44;8.70;93.00
26707;DHT22;14319;49.422;10.934;2023-11-21T02:32:44;8.70;94.50
26707;DHT22;14319;49.422;10.934;2023-11-21T02:34:45;8.70;95.20
26707;DHT22;14319;49.422;10.934;2023-11-21T02:36:46;8.70;95.70
26707;DHT22;14319;49.422;10.934;2023-11-21T02:38:47;8.90;95.70
26707;DHT22;14319;49.422;10.934;2023-11-21T02:40:48;9.00;95.40
26707;DHT22;14319;49.422;10.934;2023-11-21T02:42:49;9.00;95.40
26707;DHT22;14319;49.422;10.934;2023-11-21T02:44:53;9.00;95.60
26707;DHT22;14319;49.422;10.934;2023-11-21T02:46:54;9.10;95.30
26707;DHT22;14319;49.422;10.934;2023-11-21T02:48:55;9.10;95.10
26707;DHT22;14319;49.422;10.934;2023-11-21T02:50:55;9.20;94.70
26707;DHT22;14319;49.422;10.934;2023-11-21T02:52:56;9.20;94.50
26707;DHT22;14319;49.422;10.934;2023-11-21T02:55:01;9.10;94.40
26707;DHT22;14319;49.422;10.934;2023-11-21T02:57:02;9.20;94.80
26707;DHT22;14319;49.422;10.934;2023-11-21T02:59:04;9.20;94.40
26707;DHT22;14319;49.422;10.934;2023-11-21T03:01:05;9.20;94.40
26707;DHT22;14319;49.422;10.934;2023-11-21T03:03:06;9.20;94.40
26707;DHT22;14319;49.422;10.934;2023-11-21T03:05:07;9.10;94.60
26707;DHT22;14319;49.422;10.934;2023-11-21T03:07:09;9.10;94.50
26707;DHT22;14319;49.422;10.934;2023-11-21T03:09:10;9.10;95.00
26707;DHT22;14319;49.422;10.934;2023-11-21T03:11:13;9.10;94.50
26707;DHT22;14319;49.422;10.934;2023-11-21T03:13:13;9.10;94.80
26707;DHT22;14319;49.422;10.934;2023-11-21T03:15:14;9.10;94.90
26707;DHT22;14319;49.422;10.934;2023-11-21T03:17:15;9.10;94.70
26707;DHT22;14319;49.422;10.934;2023-11-21T03:19:16;9.00;94.60
26707;DHT22;14319;49.422;10.934;2023-11-21T03:21:17;9.10;94.80
26707;DHT22;14319;49.422;10.934;2023-11-21T03:23:18;9.10;94.30
26707;DHT22;14319;49.422;10.934;2023-11-21T03:25:18;9.10;93.80
26707;DHT22;14319;49.422;10.934;2023-11-21T03:27:19;9.10;93.90
26707;DHT22;14319;49.422;10.934;2023-11-21T03:29:19;9.00;93.90
26707;DHT22;14319;49.422;10.934;2023-11-21T03:31:20;9.00;94.90
26707;DHT22;14319;49.422;10.934;2023-11-21T03:33:21;9.00;94.90
26707;DHT22;14319;49.422;10.934;2023-11-21T03:35:22;9.00;94.70
26707;DHT22;14319;49.422;10.934;2023-11-21T03:37:24;9.00;95.20
26707;DHT22;14319;49.422;10.934;2023-11-21T03:39:25;9.00;94.90
26707;DHT22;14319;49.422;10.934;2023-11-21T03:41:26;9.10;94.80
26707;DHT22;14319;49.422;10.934;2023-11-21T03:43:26;9.10;94.60
26707;DHT22;14319;49.422;10.934;2023-11-21T03:45:27;9.10;94.60
26707;DHT22;14319;49.422;10.934;2023-11-21T03:47:28;9.10;93.90
26707;DHT22;14319;49.422;10.934;2023-11-21T03:49:28;9.10;94.70
26707;DHT22;14319;49.422;10.934;2023-11-21T03:51:29;9.10;94.60
26707;DHT22;14319;49.422;10.934;2023-11-21T03:53:30;9.10;94.10
26707;DHT22;14319;49.422;10.934;2023-11-21T03:55:30;9.20;94.10
26707;DHT22;14319;49.422;10.934;2023-11-21T03:57:32;9.20;94.10
26707;DHT22;14319;49.422;10.934;2023-11-21T03:59:32;9.20;93.90
26707;DHT22;14319;49.422;10.934;2023-11-21T04:01:33;9.20;94.00
26707;DHT22;14319;49.422;10.934;2023-11-21T04:03:33;9.20;94.20
26707;DHT22;14319;49.422;10.934;2023-11-21T04:05:34;9.20;94.10
26707;DHT22;14319;49.422;10.934;2023-11-21T04:07:35;9.20;94.20
26707;DHT22;14319;49.422;10.934;2023-11-21T04:09:37;9.20;94.10
26707;DHT22;14319;49.422;10.934;2023-11-21T04:11:38;9.20;94.10
26707;DHT22;14319;49.422;10.934;2023-11-21T04:13:40;9.20;94.10
26707;DHT22;14319;49.422;10.934;2023-11-21T04:15:41;9.20;94.00
26707;DHT22;14319;49.422;10.934;2023-11-21T04:17:42;9.20;93.90
26707;DHT22;14319;49.422;10.934;2023-11-21T04:19:42;9.20;93.90
26707;DHT22;14319;49.422;10.934;2023-11-21T04:21:43;9.10;94.30
26707;DHT22;14319;49.422;10.934;2023-11-21T04:23:43;9.20;94.50
26707;DHT22;14319;49.422;10.934;2023-11-21T04:25:44;9.20;94.40
26707;DHT22;14319;49.422;10.934;2023-11-21T04:27:45;9.20;94.00
26707;DHT22;14319;49.422;10.934;2023-11-21T04:29:46;9.20;94.00
26707;DHT22;14319;49.422;10.934;2023-11-21T04:31:46;9.10;93.80
26707;DHT22;14319;49.422;10.934;2023-11-21T04:33:49;9.10;92.60
26707;DHT22;14319;49.422;10.934;2023-11-21T04:35:49;9.00;93.60
26707;DHT22;14319;49.422;10.934;2023-11-21T04:37:50;8.90;94.70
26707;DHT22;14319;49.422;10.934;2023-11-21T04:39:51;8.90;94.30
26707;DHT22;14319;49.422;10.934;2023-11-21T04:41:52;9.00;93.90
26707;DHT22;14319;49.422;10.934;2023-11-21T04:43:53;8.80;94.00
26707;DHT22;14319;49.422;10.934;2023-11-21T04:45:54;8.80;95.10
26707;DHT22;14319;49.422;10.934;2023-11-21T04:47:55;8.70;95.30
26707;DHT22;14319;49.422;10.934;2023-11-21T04:49:56;8.70;95.60
26707;DHT22;14319;49.422;10.934;2023-11-21T04:51:57;8.80;95.40
26707;DHT22;14319;49.422;10.934;2023-11-21T04:53:58;8.50;94.90
26707;DHT22;14319;49.422;10.934;2023-11-21T04:55:58;8.60;95.70
26707;DHT22;14319;49.422;10.934;2023-11-21T04:57:59;8.60;95.40
26707;DHT22;14319;49.422;10.934;2023-11-21T04:59:59;8.70;95.70
26707;DHT22;14319;49.422;10.934;2023-11-21T05:02:00;8.70;94.60
26707;DHT22;14319;49.422;10.934;2023-11-21T05:04:00;8.80;95.00
26707;DHT22;14319;49.422;10.934;2023-11-21T05:06:01;8.80;95.00
26707;DHT22;14319;49.422;10.934;2023-11-21T05:08:02;8.80;95.30
26707;DHT22;14319;49.422;10.934;2023-11-21T05:10:07;8.80;95.20
26707;DHT22;14319;49.422;10.934;2023-11-21T05:12:09;8.90;95.00
26707;DHT22;14319;49.422;10.934;2023-11-21T05:14:10;9.00;94.60
26707;DHT22;14319;49.422;10.934;2023-11-21T05:16:10;9.00;94.70
26707;DHT22;14319;49.422;10.934;2023-11-21T05:18:11;9.00;94.40
26707;DHT22;14319;49.422;10.934;2023-11-21T05:20:14;9.00;94.80
26707;DHT22;14319;49.422;10.934;2023-11-21T05:22:18;9.00;94.80
26707;DHT22;14319;49.422;10.934;2023-11-21T05:24:20;9.00;94.80
26707;DHT22;14319;49.422;10.934;2023-11-21T05:26:20;9.10;94.60
26707;DHT22;14319;49.422;10.934;2023-11-21T05:28:22;9.00;94.40
26707;DHT22;14319;49.422;10.934;2023-11-21T05:30:22;8.90;93.90
26707;DHT22;14319;49.422;10.934;2023-11-21T05:32:26;8.70;95.10
26707;DHT22;14319;49.422;10.934;2023-11-21T05:34:27;8.60;95.10
26707;DHT22;14319;49.422;10.934;2023-11-21T05:36:27;8.60;96.40
26707;DHT22;14319;49.422;10.934;2023-11-21T05:38:28;8.60;95.90
26707;DHT22;14319;49.422;10.934;2023-11-21T05:40:28;8.50;95.60
26707;DHT22;14319;49.422;10.934;2023-11-21T05:42:30;8.50;96.00
26707;DHT22;14319;49.422;10.934;2023-11-21T05:44:31;8.50;96.70
26707;DHT22;14319;49.422;10.934;2023-11-21T05:46:32;8.60;96.40
26707;DHT22;14319;49.422;10.934;2023-11-21T05:48:32;8.60;95.90
26707;DHT22;14319;49.422;10.934;2023-11-21T05:50:33;8.70;96.10
26707;DHT22;14319;49.422;10.934;2023-11-21T05:52:33;8.80;95.80
26707;DHT22;14319;49.422;10.934;2023-11-21T05:54:34;8.80;95.30
26707;DHT22;14319;49.422;10.934;2023-11-21T05:56:34;8.80;94.80
26707;DHT22;14319;49.422;10.934;2023-11-21T05:58:35;8.90;95.30
26707;DHT22;14319;49.422;10.934;2023-11-21T06:00:36;8.90;95.10
26707;DHT22;14319;49.422;10.934;2023-11-21T06:02:40;8.90;95.10
26707;DHT22;14319;49.422;10.934;2023-11-21T06:04:40;8.90;95.40
26707;DHT22;14319;49.422;10.934;2023-11-21T06:06:42;8.90;95.30
26707;DHT22;14319;49.422;10.934;2023-11-21T06:08:43;8.90;94.60
26707;DHT22;14319;49.422;10.934;2023-11-21T06:10:44;8.90;95.30
26707;DHT22;14319;49.422;10.934;2023-11-21T06:12:45;8.90;95.50
26707;DHT22;14319;49.422;10.934;2023-11-21T06:14:46;8.90;95.30
26707;DHT22;14319;49.422;10.934;2023-11-21T06:16:46;9.00;95.20
26707;DHT22;14319;49.422;10.934;2023-11-21T06:18:47;9.00;95.00
26707;DHT22;14319;49.422;10.934;2023-11-21T06:20:47;8.90;95.10
26707;DHT22;14319;49.422;10.934;2023-11-21T06:22:49;9.00;94.80
26707;DHT22;14319;49.422;10.934;2023-11-21T06:24:50;9.00;94.80
26707;DHT22;14319;49.422;10.934;2023-11-21T06:26:51;9.00;94.70
26707;DHT22;14319;49.422;10.934;2023-11-21T06:28:51;9.00;94.70
26707;DHT22;14319;49.422;10.934;2023-11-21T06:30:53;9.00;94.60
26707;DHT22;14319;49.422;10.934;2023-11-21T06:32:53;8.90;94.30
26707;DHT22;14319;49.422;10.934;2023-11-21T06:34:58;8.90;94.60
26707;DHT22;14319;49.422;10.934;2023-11-21T06:37:01;8.90;95.10
26707;DHT22;14319;49.422;10.934;2023-11-21T06:39:02;8.90;94.70
26707;DHT22;14319;49.422;10.934;2023-11-21T06:41:03;8.90;94.80
26707;DHT22;14319;49.422;10.934;2023-11-21T06:43:04;8.90;94.10
26707;DHT22;14319;49.422;10.934;2023-11-21T06:45:07;8.80;93.40
26707;DHT22;14319;49.422;10.934;2023-11-21T06:47:11;8.70;94.60
26707;DHT22;14319;49.422;10.934;2023-11-21T06:49:11;8.70;95.40
26707;DHT22;14319;49.422;10.934;2023-11-21T06:51:12;8.60;95.20
26707;DHT22;14319;49.422;10.934;2023-11-21T06:53:13;8.70;95.80
26707;DHT22;14319;49.422;10.934;2023-11-21T06:55:14;8.70;95.60
26707;DHT22;14319;49.422;10.934;2023-11-21T06:57:15;8.70;96.00
26707;DHT22;14319;49.422;10.934;2023-11-21T06:59:16;8.80;95.80
26707;DHT22;14319;49.422;10.934;2023-11-21T07:01:16;8.70;95.60
26707;DHT22;14319;49.422;10.934;2023-11-21T07:03:17;8.70;96.00
26707;DHT22;14319;49.422;10.934;2023-11-21T07:05:20;8.70;95.90
26707;DHT22;14319;49.422;10.934;2023-11-21T07:07:21;8.50;95.70
26707;DHT22;14319;49.422;10.934;2023-11-21T07:09:22;8.60;96.60
26707;DHT22;14319;49.422;10.934;2023-11-21T07:11:22;8.50;96.50
26707;DHT22;14319;49.422;10.934;2023-11-21T07:13:23;8.50;96.30
26707;DHT22;14319;49.422;10.934;2023-11-21T07:15:24;8.50;97.10
26707;DHT22;14319;49.422;10.934;2023-11-21T07:17:26;8.60;96.60
26707;DHT22;14319;49.422;10.934;2023-11-21T07:19:27;8.80;95.90
26707;DHT22;14319;49.422;10.934;2023-11-21T07:21:27;8.90;95.20
26707;DHT22;14319;49.422;10.934;2023-11-21T07:23:28;8.90;94.90
26707;DHT22;14319;49.422;10.934;2023-11-21T07:25:28;8.80;94.10
26707;DHT22;14319;49.422;10.934;2023-11-21T07:27:29;8.70;95.70
26707;DHT22;14319;49.422;10.934;2023-11-21T07:29:30;8.70;96.40
26707;DHT22;14319;49.422;10.934;2023-11-21T07:31:30;8.60;96.40
26707;DHT22;14319;49.422;10.934;2023-11-21T07:33:34;8.60;96.70
26707;DHT22;14319;49.422;10.934;2023-11-21T07:35:35;8.50;97.40
26707;DHT22;14319;49.422;10.934;2023-11-21T07:37:35;8.50;97.70
26707;DHT22;14319;49.422;10.934;2023-11-21T07:39:36;8.50;97.90
26707;DHT22;14319;49.422;10.934;2023-11-21T07:41:42;8.60;97.50
26707;DHT22;14319;49.422;10.934;2023-11-21T07:43:48;8.70;97.40
26707;DHT22;14319;49.422;10.934;2023-11-21T07:45:49;8.80;96.60
26707;DHT22;14319;49.422;10.934;2023-11-21T07:47:49;8.90;96.00
26707;DHT22;14319;49.422;10.934;2023-11-21T07:49:50;8.90;96.30
26707;DHT22;14319;49.422;10.934;2023-11-21T07:51:51;9.00;96.10
26707;DHT22;14319;49.422;10.934;2023-11-21T07:53:52;9.00;95.60
26707;DHT22;14319;49.422;10.934;2023-11-21T07:55:53;9.10;95.80
26707;DHT22;14319;49.422;10.934;2023-11-21T07:57:53;9.10;95.60
26707;DHT22;14319;49.422;10.934;2023-11-21T07:59:54;9.10;95.60
26707;DHT22;14319;49.422;10.934;2023-11-21T08:01:55;9.10;96.00
26707;DHT22;14319;49.422;10.934;2023-11-21T08:03:56;9.20;95.70
26707;DHT22;14319;49.422;10.934;2023-11-21T08:06:02;9.30;95.50
26707;DHT22;14319;49.422;10.934;2023-11-21T08:08:06;9.30;95.00
26707;DHT22;14319;49.422;10.934;2023-11-21T08:10:07;9.40;94.60
26707;DHT22;14319;49.422;10.934;2023-11-21T08:12:07;9.40;94.20
26707;DHT22;14319;49.422;10.934;2023-11-21T08:14:08;9.40;94.20
26707;DHT22;14319;49.422;10.934;2023-11-21T08:16:09;9.40;93.90
26707;DHT22;14319;49.422;10.934;2023-11-21T08:18:09;9.40;93.80
26707;DHT22;14319;49.422;10.934;2023-11-21T08:20:11;9.40;95.30
26707;DHT22;14319;49.422;10.934;2023-11-21T08:22:11;9.30;94.80
26707;DHT22;14319;49.422;10.934;2023-11-21T08:24:12;9.20;94.40
26707;DHT22;14319;49.422;10.934;2023-11-21T08:26:16;9.30;94.80
26707;DHT22;14319;49.422;10.934;2023-11-21T08:28:17;9.40;94.70
26707;DHT22;14319;49.422;10.934;2023-11-21T08:30:17;9.40;94.40
26707;DHT22;14319;49.422;10.934;2023-11-21T08:32:19;9.40;94.70
26707;DHT22;14319;49.422;10.934;2023-11-21T08:34:20;9.50;95.00
26707;DHT22;14319;49.422;10.934;2023-11-21T08:36:20;9.50;94.60
26707;DHT22;14319;49.422;10.934;2023-11-21T08:38:23;9.50;94.00
26707;DHT22;14319;49.422;10.934;2023-11-21T08:40:23;9.60;94.10
26707;DHT22;14319;49.422;10.934;2023-11-21T08:42:25;9.60;93.80
26707;DHT22;14319;49.422;10.934;2023-11-21T08:44:30;9.60;93.70
26707;DHT22;14319;49.422;10.934;2023-11-21T08:46:30;9.60;93.60
26707;DHT22;14319;49.422;10.934;2023-11-21T08:48:31;9.60;94.60
26707;DHT22;14319;49.422;10.934;2023-11-21T08:50:31;9.60;93.70
26707;DHT22;14319;49.422;10.934;2023-11-21T08:52:32;9.60;93.60
26707;DHT22;14319;49.422;10.934;2023-11-21T08:54:33;9.30;94.00
26707;DHT22;14319;49.422;10.934;2023-11-21T08:56:34;9.30;94.80
26707;DHT22;14319;49.422;10.934;2023-11-21T08:58:35;9.40;96.00
26707;DHT22;14319;49.422;10.934;2023-11-21T09:00:37;9.40;95.30
26707;DHT22;14319;49.422;10.934;2023-11-21T09:02:39;9.30;94.50
26707;DHT22;14319;49.422;10.934;2023-11-21T09:04:42;9.20;95.50
26707;DHT22;14319;49.422;10.934;2023-11-21T09:06:43;9.10;95.70
26707;DHT22;14319;49.422;10.934;2023-11-21T09:08:43;9.10;96.30
26707;DHT22;14319;49.422;10.934;2023-11-21T09:10:44;9.00;96.00
26707;DHT22;14319;49.422;10.934;2023-11-21T09:12:47;9.00;95.50
26707;DHT22;14319;49.422;10.934;2023-11-21T09:14:48;9.10;96.40
26707;DHT22;14319;49.422;10.934;2023-11-21T09:16:51;9.20;96.00
26707;DHT22;14319;49.422;10.934;2023-11-21T09:18:52;9.30;95.30
26707;DHT22;14319;49.422;10.934;2023-11-21T09:20:52;9.30;95.70
26707;DHT22;14319;49.422;10.934;2023-11-21T09:22:53;9.30;95.90
26707;DHT22;14319;49.422;10.934;2023-11-21T09:24:54;9.30;95.60
26707;DHT22;14319;49.422;10.934;2023-11-21T09:26:57;9.40;95.70
26707;DHT22;14319;49.422;10.934;2023-11-21T09:28:57;9.40;94.80
26707;DHT22;14319;49.422;10.934;2023-11-21T09:30:58;9.60;94.50
26707;DHT22;14319;49.422;10.934;2023-11-21T09:32:58;9.60;94.90
26707;DHT22;14319;49.422;10.934;2023-11-21T09:34:59;9.60;95.60
26707;DHT22;14319;49.422;10.934;2023-11-21T09:37:02;9.60;95.70
26707;DHT22;14319;49.422;10.934;2023-11-21T09:39:05;9.80;94.70
26707;DHT22;14319;49.422;10.934;2023-11-21T09:41:19;9.70;95.00
26707;DHT22;14319;49.422;10.934;2023-11-21T09:43:21;9.50;95.10
26707;DHT22;14319;49.422;10.934;2023-11-21T09:45:28;9.40;96.30
26707;DHT22;14319;49.422;10.934;2023-11-21T09:47:29;9.30;96.60
26707;DHT22;14319;49.422;10.934;2023-11-21T09:49:33;9.30;96.80
26707;DHT22;14319;49.422;10.934;2023-11-21T09:51:36;9.40;97.30
26707;DHT22;14319;49.422;10.934;2023-11-21T09:53:42;9.50;96.90
26707;DHT22;14319;49.422;10.934;2023-11-21T09:55:45;9.40;95.90
26707;DHT22;14319;49.422;10.934;2023-11-21T09:57:47;9.60;95.80
26707;DHT22;14319;49.422;10.934;2023-11-21T09:59:53;9.60;94.60
26707;DHT22;14319;49.422;10.934;2023-11-21T10:01:59;9.70;95.10
26707;DHT22;14319;49.422;10.934;2023-11-21T10:04:00;9.70;95.00
26707;DHT22;14319;49.422;10.934;2023-11-21T10:06:01;9.80;94.80
26707;DHT22;14319;49.422;10.934;2023-11-21T10:08:12;9.70;94.40
26707;DHT22;14319;49.422;10.934;2023-11-21T10:10:14;9.50;95.30
26707;DHT22;14319;49.422;10.934;2023-11-21T10:12:17;9.40;96.00
26707;DHT22;14319;49.422;10.934;2023-11-21T10:14:22;9.00;96.80
26707;DHT22;14319;49.422;10.934;2023-11-21T10:16:26;8.70;99.30
26707;DHT22;14319;49.422;10.934;2023-11-21T10:18:27;8.60;99.00
26707;DHT22;14319;49.422;10.934;2023-11-21T10:20:28;8.50;99.50
26707;DHT22;14319;49.422;10.934;2023-11-21T10:22:29;8.40;99.90
26707;DHT22;14319;49.422;10.934;2023-11-21T10:24:30;8.50;99.90
26707;DHT22;14319;49.422;10.934;2023-11-21T10:26:31;8.60;99.90
26707;DHT22;14319;49.422;10.934;2023-11-21T10:28:35;8.50;99.90
26707;DHT22;14319;49.422;10.934;2023-11-21T10:30:38;8.60;99.80
26707;DHT22;14319;49.422;10.934;2023-11-21T10:32:39;8.70;99.90
26707;DHT22;14319;49.422;10.934;2023-11-21T10:34:40;8.80;99.90
26707;DHT22;14319;49.422;10.934;2023-11-21T10:36:42;9.00;98.90
26707;DHT22;14319;49.422;10.934;2023-11-21T10:38:42;9.10;98.50
26707;DHT22;14319;49.422;10.934;2023-11-21T10:40:44;8.80;95.70
26707;DHT22;14319;49.422;10.934;2023-11-21T10:42:46;8.80;97.90
26707;DHT22;14319;49.422;10.934;2023-11-21T10:44:47;8.90;98.30
26707;DHT22;14319;49.422;10.934;2023-11-21T10:46:55;8.90;98.30
26707;DHT22;14319;49.422;10.934;2023-11-21T10:49:01;8.90;99.70
26707;DHT22;14319;49.422;10.934;2023-11-21T10:51:06;9.00;98.10
26707;DHT22;14319;49.422;10.934;2023-11-21T10:53:08;8.80;96.50
26707;DHT22;14319;49.422;10.934;2023-11-21T10:57:22;8.70;97.40
26707;DHT22;14319;49.422;10.934;2023-11-21T10:59:28;8.80;99.10
26707;DHT22;14319;49.422;10.934;2023-11-21T11:01:29;9.00;97.60
26707;DHT22;14319;49.422;10.934;2023-11-21T11:03:31;9.30;96.70
26707;DHT22;14319;49.422;10.934;2023-11-21T11:05:34;9.30;97.30
26707;DHT22;14319;49.422;10.934;2023-11-21T11:07:36;9.00;96.50
26707;DHT22;14319;49.422;10.934;2023-11-21T11:09:39;9.10;98.50
26707;DHT22;14319;49.422;10.934;2023-11-21T11:11:40;9.10;97.70
26707;DHT22;14319;49.422;10.934;2023-11-21T11:13:44;9.10;95.00
26707;DHT22;14319;49.422;10.934;2023-11-21T11:15:48;9.10;97.60
26707;DHT22;14319;49.422;10.934;2023-11-21T11:17:49;9.40;97.30
26707;DHT22;14319;49.422;10.934;2023-11-21T11:19:50;9.50;94.80
26707;DHT22;14319;49.422;10.934;2023-11-21T11:26:37;10.10;89.80
26707;DHT22;14319;49.422;10.934;2023-11-21T11:29:08;10.10;89.60
26707;DHT22;14319;49.422;10.934;2023-11-21T11:33:54;9.50;90.70
26707;DHT22;14319;49.422;10.934;2023-11-21T11:36:08;9.20;93.70
26707;DHT22;14319;49.422;10.934;2023-11-21T11:38:11;9.10;94.60
26707;DHT22;14319;49.422;10.934;2023-11-21T11:40:12;9.10;96.10
26707;DHT22;14319;49.422;10.934;2023-11-21T11:42:14;9.20;96.10
26707;DHT22;14319;49.422;10.934;2023-11-21T11:46:47;9.40;93.90
26707;DHT22;14319;49.422;10.934;2023-11-21T11:48:48;9.10;95.70
26707;DHT22;14319;49.422;10.934;2023-11-21T11:51:13;9.00;95.70
26707;DHT22;14319;49.422;10.934;2023-11-21T11:53:22;9.00;97.30
26707;DHT22;14319;49.422;10.934;2023-11-21T11:55:24;9.00;97.20
26707;DHT22;14319;49.422;10.934;2023-11-21T11:57:25;8.90;98.20
26707;DHT22;14319;49.422;10.934;2023-11-21T11:59:26;8.90;98.80
26707;DHT22;14319;49.422;10.934;2023-11-21T12:01:27;9.00;97.80
26707;DHT22;14319;49.422;10.934;2023-11-21T12:03:27;8.80;97.00
26707;DHT22;14319;49.422;10.934;2023-11-21T12:05:29;8.70;97.70
26707;DHT22;14319;49.422;10.934;2023-11-21T12:07:54;8.70;97.30
26707;DHT22;14319;49.422;10.934;2023-11-21T12:09:55;8.80;99.00
26707;DHT22;14319;49.422;10.934;2023-11-21T12:11:56;8.70;96.40
26707;DHT22;14319;49.422;10.934;2023-11-21T12:13:59;8.70;96.80
26707;DHT22;14319;49.422;10.934;2023-11-21T12:16:00;8.70;97.60
26707;DHT22;14319;49.422;10.934;2023-11-21T12:18:01;8.70;97.10
26707;DHT22;14319;49.422;10.934;2023-11-21T12:20:03;8.60;96.50
26707;DHT22;14319;49.422;10.934;2023-11-21T12:22:05;8.70;97.30
26707;DHT22;14319;49.422;10.934;2023-11-21T12:24:07;8.70;98.80
26707;DHT22;14319;49.422;10.934;2023-11-21T12:26:14;8.80;99.10
26707;DHT22;14319;49.422;10.934;2023-11-21T12:28:14;8.80;97.80
26707;DHT22;14319;49.422;10.934;2023-11-21T12:30:17;8.80;99.00
26707;DHT22;14319;49.422;10.934;2023-11-21T12:32:18;8.80;98.10
26707;DHT22;14319;49.422;10.934;2023-11-21T12:34:18;8.70;97.40
26707;DHT22;14319;49.422;10.934;2023-11-21T12:36:19;8.70;97.50
26707;DHT22;14319;49.422;10.934;2023-11-21T12:38:20;8.60;98.00
26707;DHT22;14319;49.422;10.934;2023-11-21T12:40:21;8.60;98.30
26707;DHT22;14319;49.422;10.934;2023-11-21T12:42:23;8.70;96.30
26707;DHT22;14319;49.422;10.934;2023-11-21T12:44:24;8.70;97.50
26707;DHT22;14319;49.422;10.934;2023-11-21T12:46:25;8.80;97.70
26707;DHT22;14319;49.422;10.934;2023-11-21T12:48:31;8.80;96.90
26707;DHT22;14319;49.422;10.934;2023-11-21T12:50:33;8.80;97.30
26707;DHT22;14319;49.422;10.934;2023-11-21T12:52:34;8.80;98.00
26707;DHT22;14319;49.422;10.934;2023-11-21T12:54:34;8.90;97.70
26707;DHT22;14319;49.422;10.934;2023-11-21T12:56:39;8.80;96.70
26707;DHT22;14319;49.422;10.934;2023-11-21T12:58:40;8.80;98.40
26707;DHT22;14319;49.422;10.934;2023-11-21T13:00:47;9.00;98.90